LEIB/IBZ METAR and TAF weather

Enter ICAO airport designator
Station Type Date Time Source
LEIB METAR 2019/04/26 04:30 UTC NOAA

LEIB 260430Z 25013KT 210V280 CAVOK 15/07 Q1019 NOSIG


Station Type Date Time Source
LEIB Decoded METAR 2019/04/26 04:30 UTC NOAA

Ibiza / Es Codola, Spain (LEIB) 38-52N 001-23E 12M
Apr 26, 2019 - 12:30 AM EDT / 2019.04.26 0430 UTC
Wind: from the WSW (250 degrees) at 15 MPH (13 KT) (direction variable):0
Visibility: greater than 7 mile(s):0
Temperature: 59 F (15 C)
Dew Point: 44 F (7 C)
Relative Humidity: 58%
Pressure (altimeter): 30.09 in. Hg (1019 hPa)
ob: LEIB 260430Z 25013KT 210V280 CAVOK 15/07 Q1019 NOSIG
cycle: 4

Station Type Date Time Source
LEIB TAF 2019/04/26 03:27 UTC NOAA

TAF LEIB 260200Z 2603/2703 29012KT 9999 FEW025 TX19/2612Z TN11/2606Z
BECMG 2610/2612 24007KT

Example: see airport list